Terminal Aerodrome Forecast
Issued by NWS Sterling, VA

Current Version | Previous Version | Text Only | Print | Product List | Glossary Off
Versions: 1 2 3 4 5 6 7 8 9 10 11 12 13 14 15 16 17 18 19 20 21 22

692
FTUS41 KLWX 131458 AAA
TAFDCA
TAF AMD
KDCA 131458Z 1315/1412 33013G24KT P6SM BKN130
     FM132300 36009KT P6SM SCT250
     FM140600 03006KT 2SM -RAPL OVC060
     FM140800 04006KT 3SM -FZRAPL OVC030=

USA.gov is the U.S. government's official web portal to all federal, state and local government web resources and services.